Glade Springs, West Virginia
Current Conditions -  °F | °C
As of 2:21 AM on Thursday 18 Dec 2014 (Local Time) from KBKW Reporting Station
Overcast Overcast  
Wind Chill: 19°   Ceiling: 1500
Heat Index: 28°   Visibility: 10mi
Dew Point: 21°   Wind: 10mph
Humidity: 75%   Direction: 330°NNW
Pressure: 30.12"   Gusts: NA
Location:  37.7247°N, 81.1394°W
Report Text: KBKW 180721Z AUTO 33009KT 10SM OVC015 M02/M06 A3012 RMK AO2 T10221061
Loading
Personal Weather Stations






























Interactive Weather Map New forecast layout! Learn more

10-Day Weather Forecast

Advertisements
Track Severe Weather on mobile